Hauptseite
METAR-TAF:

METAR-TAF

Flughäfen :

Flughafen Caracas

Caracas, Venezuela

Breite: 10-36N, Länge: 066-59W, Höhe: 43 m

Beobachtung

Neuester Wetterbericht von vor 40 Minuten, um 20:00 UTC
Wind 3 kt aus Ost/Nordost
Temperatur 23°C
Luftfeuchtigkeit 94%
Luftdruck 1008 hPa
Sichtweite 10 km oder mehr
Durchbrochene Bewölkung in der Höhe von 1600 ft

METAR: SVMI 252000Z 07003KT 9999 BKN016 23/22 Q1008

Zeit: 16:40 (20:40 UTC)

Prognose

Neuester Wetterbericht von vor 4 Stunden und 40 Minuten, um 16:00 UTC
Gültige Prognose vom 25 um 18 UTC bis 26 um 18 UTC
Wind 9 kt aus Südwest
Sichtweite 10 km oder mehr
Durchbrochene Bewölkung in der Höhe von 1600 ft
Zeitweise
vom 25 um 18 UTC bis 25 um 22 UTC
Wind 5 kt aus Ost
Sichtweite: 9000 m
Durchbrochene Bewölkung in der Höhe von 1600 ft
Sprühregen

TAF: SVMI 251600Z 2518/2618 22009KT 9999 BKN016 TX31/1800Z TN24/0900Z TEMPO 2518/2522 09005KT 9000 DZ BKN016

Wetterbeobachtungen und Prognosen von mehr als 4000 Flughäfen (METAR und TAF Bericht).

Die verfügbaren Stationen werden durch gelbe und rote Markierungen auf der Karte dargestellt.

Führen Sie die Maus auf sie, um den Namen der Station zu sehen.

Darauf klicken, um die Beobachtung von Wetterbeobachtungen und Prognosen zu sehen.

Um die Karte zu ändern : klicken Sie auf den grünen Tasten mit einem schwarzen Kreuz Zum Vergrößern, auf den grünen Button mit einem Gedankenstrich zu verkleinern, oder auf die grünen Pfeile für benachbarte Karten.


METAR-TAF: